Time;durP1;ratioP1;P1;durP2;ratioP2;P2;SDS_P1;SDS_P2;PMS_P1;PMS_P2;Temp;Humidity;BMP_temperature;BMP_pressure;BME280_temperature;BME280_humidity;BME280_pressure;Samples;Min_cycle;Max_cycle;Signal;HPM_P1;HPM_P2
2023/01/23 00:01:21;;;;;;;5.30;3.27;;;;;;;;;;5076531;28;20211;-85
2023/01/23 00:03:49;;;;;;;5.00;2.73;;;;;;;;;;5076590;28;20201;-85
2023/01/23 00:06:18;;;;;;;6.80;4.57;;;;;;;;;;5076626;28;20312;-85
2023/01/23 00:08:46;;;;;;;5.70;3.57;;;;;;;;;;5076445;28;20231;-85
2023/01/23 00:11:16;;;;;;;3.80;3.33;;;;;;;;;;5076506;28;20291;-84
2023/01/23 00:13:44;;;;;;;8.37;6.03;;;;;;;;;;5094370;28;20197;-85
2023/01/23 00:16:15;;;;;;;6.73;3.80;;;;;;;;;;5076228;28;20200;-84
2023/01/23 00:18:43;;;;;;;5.23;4.63;;;;;;;;;;5076217;28;20286;-85
2023/01/23 00:21:13;;;;;;;5.47;4.50;;;;;;;;;;5094339;28;20205;-85
2023/01/23 00:23:42;;;;;;;4.80;3.70;;;;;;;;;;5094408;28;20216;-85
2023/01/23 00:26:14;;;;;;;8.13;5.33;;;;;;;;;;5076148;28;20212;-85
2023/01/23 00:28:42;;;;;;;7.77;4.17;;;;;;;;;;5076365;28;20208;-85
2023/01/23 00:31:12;;;;;;;11.73;5.50;;;;;;;;;;5076185;28;20189;-84
2023/01/23 00:33:42;;;;;;;7.07;5.67;;;;;;;;;;5076135;28;20200;-84
2023/01/23 00:36:11;;;;;;;9.83;6.13;;;;;;;;;;5076120;28;20196;-84
2023/01/23 00:38:39;;;;;;;13.03;5.47;;;;;;;;;;5093916;28;20204;-84
2023/01/23 00:41:08;;;;;;;4.07;3.77;;;;;;;;;;5094130;28;20291;-84
2023/01/23 00:43:36;;;;;;;7.43;3.73;;;;;;;;;;5076144;28;20218;-84
2023/01/23 00:46:05;;;;;;;6.60;4.67;;;;;;;;;;5094094;28;20212;-84
2023/01/23 00:48:33;;;;;;;4.23;3.83;;;;;;;;;;5075795;28;20273;-84
2023/01/23 00:51:03;;;;;;;6.47;4.43;;;;;;;;;;5076017;28;20242;-84
2023/01/23 00:53:31;;;;;;;4.40;3.43;;;;;;;;;;5075954;28;20203;-84
2023/01/23 00:55:59;;;;;;;4.10;3.67;;;;;;;;;;5076100;28;20247;-84
2023/01/23 00:58:28;;;;;;;3.43;3.23;;;;;;;;;;5075929;28;20270;-85
2023/01/23 01:00:56;;;;;;;7.30;4.30;;;;;;;;;;5076054;28;20235;-84
2023/01/23 01:03:24;;;;;;;6.87;5.77;;;;;;;;;;5075698;28;20197;-84
2023/01/23 01:05:53;;;;;;;6.87;4.33;;;;;;;;;;5075561;28;20242;-84
2023/01/23 01:08:23;;;;;;;9.70;4.73;;;;;;;;;;5075562;28;20230;-84
2023/01/23 01:10:51;;;;;;;12.07;5.07;;;;;;;;;;5075753;28;20247;-84
2023/01/23 01:13:22;;;;;;;9.87;5.50;;;;;;;;;;5096558;28;20235;-84
2023/01/23 01:15:51;;;;;;;3.77;3.47;;;;;;;;;;5080351;28;20253;-84
2023/01/23 01:18:20;;;;;;;7.03;6.33;;;;;;;;;;5079556;28;20227;-84
2023/01/23 01:20:49;;;;;;;4.47;3.67;;;;;;;;;;5079877;28;20202;-84
2023/01/23 01:23:17;;;;;;;3.93;3.53;;;;;;;;;;5079662;28;20196;-84
2023/01/23 01:25:47;;;;;;;8.43;3.70;;;;;;;;;;5097860;28;20284;-84
2023/01/23 01:28:15;;;;;;;9.87;5.57;;;;;;;;;;5097697;28;20196;-84
2023/01/23 01:30:44;;;;;;;7.43;4.60;;;;;;;;;;5079296;28;20215;-84
2023/01/23 01:33:12;;;;;;;9.30;6.00;;;;;;;;;;5079444;28;20269;-84
2023/01/23 01:35:41;;;;;;;4.67;4.07;;;;;;;;;;5079856;28;20196;-84
2023/01/23 01:38:09;;;;;;;5.40;3.60;;;;;;;;;;5079787;28;20207;-84
2023/01/23 01:40:38;;;;;;;3.70;2.93;;;;;;;;;;5097623;28;20220;-84
2023/01/23 01:43:08;;;;;;;9.63;4.13;;;;;;;;;;5079478;28;20204;-85
2023/01/23 01:46:01;;;;;;;6.50;4.37;;;;;;;;;;5079268;28;20197;-85
2023/01/23 01:48:31;;;;;;;9.27;5.27;;;;;;;;;;5078761;28;20193;-84
2023/01/23 01:51:01;;;;;;;7.00;4.30;;;;;;;;;;5079279;28;20208;-85
2023/01/23 01:53:30;;;;;;;4.93;4.53;;;;;;;;;;5079168;28;20200;-84
2023/01/23 01:55:59;;;;;;;4.63;2.73;;;;;;;;;;5078962;28;20224;-84
2023/01/23 01:58:29;;;;;;;7.47;4.90;;;;;;;;;;5096809;28;20215;-84
2023/01/23 02:00:57;;;;;;;10.43;7.30;;;;;;;;;;5096760;28;20201;-84
2023/01/23 02:03:26;;;;;;;8.37;4.67;;;;;;;;;;5078717;28;20211;-83
2023/01/23 02:05:54;;;;;;;15.93;12.43;;;;;;;;;;5079149;28;20217;-84
2023/01/23 02:08:25;;;;;;;4.90;3.73;;;;;;;;;;5078773;28;20226;-85
2023/01/23 02:10:53;;;;;;;5.27;3.73;;;;;;;;;;5096675;28;20217;-84
2023/01/23 02:13:24;;;;;;;2.87;2.67;;;;;;;;;;5096750;28;20200;-84
2023/01/23 02:15:54;;;;;;;8.50;5.10;;;;;;;;;;5096950;28;20212;-84
2023/01/23 02:18:23;;;;;;;2.87;2.67;;;;;;;;;;5096270;28;20242;-84
2023/01/23 02:20:52;;;;;;;3.77;3.47;;;;;;;;;;5078471;28;20288;-85
2023/01/23 02:23:23;;;;;;;5.03;3.77;;;;;;;;;;5078122;28;20270;-84
2023/01/23 02:26:01;;;;;;;3.87;3.53;;;;;;;;;;5078456;28;20205;-84
2023/01/23 02:28:39;;;;;;;3.23;2.93;;;;;;;;;;5096435;28;20252;-84
2023/01/23 02:31:07;;;;;;;7.40;3.90;;;;;;;;;;5078589;28;20299;-84
2023/01/23 02:33:46;;;;;;;16.70;3.80;;;;;;;;;;5078501;28;20207;-84
2023/01/23 02:36:14;;;;;;;11.73;4.73;;;;;;;;;;5078196;28;20201;-85
2023/01/23 02:38:47;;;;;;;9.20;4.33;;;;;;;;;;5096184;28;20222;-84
2023/01/23 02:41:18;;;;;;;10.43;6.17;;;;;;;;;;5078310;28;20193;-84
2023/01/23 02:43:47;;;;;;;6.30;5.20;;;;;;;;;;5078036;28;20223;-84
2023/01/23 02:46:17;;;;;;;5.70;4.20;;;;;;;;;;5096138;28;20235;-84
2023/01/23 02:48:46;;;;;;;6.13;5.33;;;;;;;;;;5095683;28;20200;-84
2023/01/23 02:51:15;;;;;;;9.60;3.93;;;;;;;;;;5077843;28;20229;-84
2023/01/23 02:53:44;;;;;;;5.80;5.20;;;;;;;;;;5077917;28;20200;-84
2023/01/23 02:56:12;;;;;;;7.27;4.90;;;;;;;;;;5077925;28;20272;-84
2023/01/23 03:01:28;;;;;;;8.30;6.67;;;;;;;;;;5095364;28;20286;-84
2023/01/23 03:03:56;;;;;;;9.37;6.23;;;;;;;;;;5077808;28;20199;-84
2023/01/23 03:06:25;;;;;;;9.87;7.13;;;;;;;;;;5077453;28;20227;-84
2023/01/23 03:08:54;;;;;;;7.40;4.33;;;;;;;;;;5077529;28;20299;-84
2023/01/23 03:11:24;;;;;;;4.33;3.63;;;;;;;;;;5095379;28;20300;-84
2023/01/23 03:13:54;;;;;;;8.17;4.60;;;;;;;;;;5077883;28;20208;-84
2023/01/23 03:16:22;;;;;;;6.07;4.77;;;;;;;;;;5095365;28;20287;-84
2023/01/23 03:18:50;;;;;;;7.83;5.17;;;;;;;;;;5077140;28;20314;-84
2023/01/23 03:21:22;;;;;;;6.00;5.00;;;;;;;;;;5095237;28;20184;-84
2023/01/23 03:23:50;;;;;;;9.80;5.47;;;;;;;;;;5077337;28;20256;-84
2023/01/23 03:26:19;;;;;;;7.90;5.40;;;;;;;;;;5077310;28;20220;-84
2023/01/23 03:31:34;;;;;;;11.47;7.37;;;;;;;;;;5077023;28;20220;-84
2023/01/23 03:34:03;;;;;;;7.53;4.50;;;;;;;;;;5094903;28;20230;-84
2023/01/23 03:36:31;;;;;;;10.67;7.80;;;;;;;;;;5076755;28;20199;-84
2023/01/23 03:41:47;;;;;;;24.30;4.57;;;;;;;;;;5076882;28;20203;-84
2023/01/23 03:44:17;;;;;;;6.77;4.60;;;;;;;;;;5095414;28;20200;-84
2023/01/23 03:46:47;;;;;;;12.33;5.37;;;;;;;;;;5094937;28;20199;-84
2023/01/23 03:49:16;;;;;;;6.70;5.40;;;;;;;;;;5094815;28;20193;-84
2023/01/23 03:51:44;;;;;;;6.60;6.00;;;;;;;;;;5076709;28;20276;-84
2023/01/23 03:54:13;;;;;;;9.60;6.57;;;;;;;;;;5076713;28;20192;-84
2023/01/23 03:56:41;;;;;;;6.03;5.03;;;;;;;;;;5076963;28;20195;-84
2023/01/23 03:59:10;;;;;;;6.20;4.87;;;;;;;;;;5076294;28;20243;-84
2023/01/23 04:01:38;;;;;;;5.20;4.17;;;;;;;;;;5076669;28;20189;-84
2023/01/23 04:04:08;;;;;;;9.60;4.67;;;;;;;;;;5076459;28;20258;-84
2023/01/23 04:06:36;;;;;;;8.83;5.97;;;;;;;;;;5076429;28;20225;-84
2023/01/23 04:09:05;;;;;;;9.30;5.83;;;;;;;;;;5076482;28;20209;-84
2023/01/23 04:11:33;;;;;;;8.57;5.53;;;;;;;;;;5076588;28;20215;-84
2023/01/23 04:14:01;;;;;;;5.17;4.67;;;;;;;;;;5076414;28;20250;-84
2023/01/23 04:16:30;;;;;;;5.77;4.37;;;;;;;;;;5076582;28;20200;-84
2023/01/23 04:18:58;;;;;;;7.23;5.40;;;;;;;;;;5076203;28;20258;-84
2023/01/23 04:21:28;;;;;;;15.57;6.67;;;;;;;;;;5076482;28;20192;-84
2023/01/23 04:23:56;;;;;;;11.07;5.83;;;;;;;;;;5094343;28;20196;-84
2023/01/23 04:26:24;;;;;;;3.57;3.27;;;;;;;;;;5076657;28;20239;-84
2023/01/23 04:28:53;;;;;;;9.73;6.80;;;;;;;;;;5075818;28;20208;-84
2023/01/23 04:31:21;;;;;;;4.87;3.57;;;;;;;;;;5094112;28;20215;-84
2023/01/23 04:33:49;;;;;;;9.87;3.67;;;;;;;;;;5076011;28;20197;-84
2023/01/23 04:36:18;;;;;;;5.43;3.53;;;;;;;;;;5093886;28;20235;-84
2023/01/23 04:38:47;;;;;;;6.10;4.80;;;;;;;;;;5076312;28;20201;-84
2023/01/23 04:41:18;;;;;;;3.40;3.10;;;;;;;;;;5094054;28;20195;-85
2023/01/23 04:43:47;;;;;;;5.97;3.60;;;;;;;;;;5076104;28;20195;-84
2023/01/23 04:46:15;;;;;;;8.73;6.23;;;;;;;;;;5093467;28;20232;-85
2023/01/23 04:48:43;;;;;;;3.97;3.33;;;;;;;;;;5075732;28;20302;-84
2023/01/23 04:51:14;;;;;;;4.67;3.83;;;;;;;;;;5093398;28;20221;-84
2023/01/23 04:53:42;;;;;;;9.23;6.47;;;;;;;;;;5094032;28;20204;-84
2023/01/23 04:56:12;;;;;;;7.43;4.57;;;;;;;;;;5075941;28;20256;-84
2023/01/23 04:58:41;;;;;;;17.33;5.87;;;;;;;;;;5075988;28;20214;-84
2023/01/23 05:01:10;;;;;;;6.57;5.20;;;;;;;;;;5093915;28;20197;-85
2023/01/23 05:03:38;;;;;;;8.60;5.03;;;;;;;;;;5076082;28;20211;-84
2023/01/23 05:06:07;;;;;;;2.47;2.30;;;;;;;;;;5075496;28;20221;-84
2023/01/23 05:08:35;;;;;;;2.67;2.47;;;;;;;;;;5075870;28;20219;-84
2023/01/23 05:11:03;;;;;;;5.47;4.70;;;;;;;;;;5075895;28;20221;-85
2023/01/23 05:13:33;;;;;;;4.60;3.80;;;;;;;;;;5075398;28;20236;-85
2023/01/23 05:16:01;;;;;;;8.40;3.97;;;;;;;;;;5075939;28;20295;-85
2023/01/23 05:18:30;;;;;;;8.10;6.40;;;;;;;;;;5075582;28;20240;-85
2023/01/23 05:20:58;;;;;;;3.57;3.20;;;;;;;;;;5075580;28;20231;-84
2023/01/23 05:23:26;;;;;;;5.17;4.77;;;;;;;;;;5075534;28;20199;-85
2023/01/23 05:25:55;;;;;;;5.10;4.57;;;;;;;;;;5075423;28;20234;-85
2023/01/23 05:28:23;;;;;;;12.47;6.30;;;;;;;;;;5075372;28;20197;-85
2023/01/23 05:30:53;;;;;;;6.07;4.60;;;;;;;;;;5093075;28;20247;-85
2023/01/23 05:33:21;;;;;;;2.13;2.03;;;;;;;;;;5075570;28;20206;-85
2023/01/23 05:35:49;;;;;;;4.90;4.50;;;;;;;;;;5093604;28;20215;-85
2023/01/23 05:38:18;;;;;;;3.93;3.53;;;;;;;;;;5075820;28;20224;-85
2023/01/23 05:40:46;;;;;;;8.60;4.53;;;;;;;;;;5075675;28;20219;-85
2023/01/23 05:43:15;;;;;;;11.23;4.83;;;;;;;;;;5075268;28;20201;-85
2023/01/23 05:45:43;;;;;;;5.20;4.40;;;;;;;;;;5075423;28;20205;-85
2023/01/23 05:48:13;;;;;;;10.63;7.30;;;;;;;;;;5093461;28;20296;-85
2023/01/23 05:50:42;;;;;;;6.90;5.33;;;;;;;;;;5075158;28;20208;-85
2023/01/23 05:53:10;;;;;;;7.70;6.13;;;;;;;;;;5093330;28;20204;-85
2023/01/23 05:55:38;;;;;;;4.33;3.93;;;;;;;;;;5093205;28;20219;-85
2023/01/23 05:58:07;;;;;;;8.63;5.97;;;;;;;;;;5075952;28;20211;-85
2023/01/23 06:00:35;;;;;;;6.30;5.70;;;;;;;;;;5078955;28;20200;-85
2023/01/23 06:03:05;;;;;;;2.50;2.37;;;;;;;;;;5079071;28;20197;-84
2023/01/23 06:05:35;;;;;;;6.53;4.00;;;;;;;;;;5096648;28;20228;-85
2023/01/23 06:08:03;;;;;;;4.87;3.27;;;;;;;;;;5078928;28;20204;-85
2023/01/23 06:10:31;;;;;;;2.70;2.57;;;;;;;;;;5079134;28;20288;-85
2023/01/23 06:13:00;;;;;;;2.07;1.67;;;;;;;;;;5096607;28;20227;-85
2023/01/23 06:15:28;;;;;;;6.40;5.77;;;;;;;;;;5096591;28;20278;-85
2023/01/23 06:17:56;;;;;;;5.43;3.87;;;;;;;;;;5078467;28;20224;-85
2023/01/23 06:20:25;;;;;;;3.33;3.13;;;;;;;;;;5096529;28;20205;-85
2023/01/23 06:22:54;;;;;;;7.33;6.40;;;;;;;;;;5078801;28;20227;-85
2023/01/23 06:25:23;;;;;;;4.47;4.17;;;;;;;;;;5078075;28;20204;-85
2023/01/23 06:27:51;;;;;;;4.83;4.33;;;;;;;;;;5078269;28;20227;-85
2023/01/23 06:30:22;;;;;;;8.07;4.03;;;;;;;;;;5096516;28;20193;-85
2023/01/23 06:32:50;;;;;;;4.37;2.47;;;;;;;;;;5078103;28;20230;-85
2023/01/23 06:35:19;;;;;;;4.43;3.70;;;;;;;;;;5096427;28;20235;-85
2023/01/23 06:37:48;;;;;;;7.93;5.23;;;;;;;;;;5078132;28;20256;-85
2023/01/23 06:40:18;;;;;;;4.67;3.27;;;;;;;;;;5096102;28;20254;-85
2023/01/23 06:42:47;;;;;;;10.57;7.00;;;;;;;;;;5096250;28;20427;-85
2023/01/23 06:45:15;;;;;;;3.93;3.63;;;;;;;;;;5078521;28;20201;-85
2023/01/23 06:47:43;;;;;;;4.17;3.53;;;;;;;;;;5077791;28;20232;-85
2023/01/23 06:50:12;;;;;;;4.57;4.23;;;;;;;;;;5095641;28;20192;-86
2023/01/23 06:52:40;;;;;;;7.93;6.33;;;;;;;;;;5095935;28;20201;-86
2023/01/23 06:55:09;;;;;;;4.77;4.37;;;;;;;;;;5077752;28;20201;-86
2023/01/23 06:57:39;;;;;;;2.07;1.97;;;;;;;;;;5095898;28;20200;-86
2023/01/23 07:00:09;;;;;;;5.13;4.03;;;;;;;;;;5077757;28;20266;-85
2023/01/23 07:02:39;;;;;;;3.50;3.07;;;;;;;;;;5095604;28;20242;-86
2023/01/23 07:05:07;;;;;;;6.93;2.93;;;;;;;;;;5077498;28;20302;-86
2023/01/23 07:07:35;;;;;;;2.63;2.20;;;;;;;;;;5077776;28;20254;-85
2023/01/23 07:10:04;;;;;;;4.33;3.03;;;;;;;;;;5076375;28;20197;-85
2023/01/23 07:12:33;;;;;;;8.77;5.30;;;;;;;;;;5095481;28;20304;-85
2023/01/23 07:15:02;;;;;;;10.30;7.70;;;;;;;;;;5077407;28;20291;-85
2023/01/23 07:17:31;;;;;;;4.97;3.83;;;;;;;;;;5077138;28;20201;-85
2023/01/23 07:19:59;;;;;;;4.90;3.47;;;;;;;;;;5077239;28;20193;-85
2023/01/23 07:22:28;;;;;;;7.57;4.00;;;;;;;;;;5077192;28;20204;-85
2023/01/23 07:24:56;;;;;;;6.60;5.53;;;;;;;;;;5077622;28;20275;-85
2023/01/23 07:27:24;;;;;;;2.13;2.03;;;;;;;;;;5077125;28;20253;-86
2023/01/23 07:29:53;;;;;;;4.93;4.07;;;;;;;;;;5076967;28;20295;-85
2023/01/23 07:32:22;;;;;;;2.37;2.17;;;;;;;;;;5077265;28;20242;-86
2023/01/23 07:34:52;;;;;;;7.73;4.80;;;;;;;;;;5095174;28;20201;-86
2023/01/23 07:37:20;;;;;;;5.00;4.47;;;;;;;;;;5076733;28;20231;-86
2023/01/23 07:39:49;;;;;;;5.20;3.13;;;;;;;;;;5076867;28;20219;-86
2023/01/23 07:42:17;;;;;;;7.57;3.70;;;;;;;;;;5077175;28;20197;-86
2023/01/23 07:44:46;;;;;;;1.93;1.73;;;;;;;;;;5076925;28;20266;-83
2023/01/23 07:47:14;;;;;;;4.47;4.07;;;;;;;;;;5077044;28;20204;-85
2023/01/23 07:49:44;;;;;;;10.70;8.73;;;;;;;;;;5094682;28;20197;-85
2023/01/23 07:52:12;;;;;;;5.93;2.90;;;;;;;;;;5094708;28;20216;-85
2023/01/23 07:54:41;;;;;;;2.63;2.10;;;;;;;;;;5076976;28;20255;-86
2023/01/23 07:57:09;;;;;;;3.27;3.00;;;;;;;;;;5094587;28;20204;-86
2023/01/23 07:59:40;;;;;;;3.17;2.97;;;;;;;;;;5076921;28;20242;-85
2023/01/23 08:02:12;;;;;;;4.20;3.83;;;;;;;;;;5067523;28;20296;-84
2023/01/23 08:04:45;;;;;;;3.83;3.53;;;;;;;;;;5066119;28;20300;-86
2023/01/23 08:07:13;;;;;;;3.00;2.80;;;;;;;;;;5076987;28;20227;-86
2023/01/23 08:09:41;;;;;;;6.20;5.57;;;;;;;;;;5092913;28;20208;-85
2023/01/23 08:12:10;;;;;;;3.13;2.83;;;;;;;;;;5068206;28;20216;-86
2023/01/23 08:14:39;;;;;;;6.70;5.33;;;;;;;;;;5073678;28;20207;-85
2023/01/23 08:17:08;;;;;;;7.93;4.97;;;;;;;;;;5085338;28;20201;-85
2023/01/23 08:19:36;;;;;;;9.23;6.40;;;;;;;;;;5076343;28;20220;-84
2023/01/23 08:22:06;;;;;;;9.17;4.53;;;;;;;;;;5071150;28;20208;-83
2023/01/23 08:24:34;;;;;;;4.20;3.87;;;;;;;;;;5076764;28;20303;-83
2023/01/23 08:27:02;;;;;;;5.77;4.43;;;;;;;;;;5092534;28;20204;-84
2023/01/23 08:29:31;;;;;;;8.17;5.20;;;;;;;;;;5077149;28;20205;-84
2023/01/23 08:32:00;;;;;;;8.50;5.77;;;;;;;;;;5075402;28;20228;-82
2023/01/23 08:34:28;;;;;;;9.60;3.47;;;;;;;;;;5078408;28;20209;-86
2023/01/23 08:36:56;;;;;;;1.93;1.83;;;;;;;;;;5078878;28;20215;-85
2023/01/23 08:39:26;;;;;;;8.33;7.50;;;;;;;;;;5075195;28;20220;-85
2023/01/23 08:41:55;;;;;;;16.97;7.30;;;;;;;;;;5073871;28;20197;-85
2023/01/23 08:44:24;;;;;;;9.00;5.53;;;;;;;;;;5085828;28;20224;-84
2023/01/23 08:46:52;;;;;;;3.87;3.13;;;;;;;;;;5062418;28;20217;-87
2023/01/23 08:49:21;;;;;;;2.90;2.63;;;;;;;;;;5071959;28;20235;-87
2023/01/23 08:51:49;;;;;;;1.97;1.87;;;;;;;;;;5077349;28;20196;-86
2023/01/23 08:54:17;;;;;;;6.80;5.40;;;;;;;;;;5074580;28;20236;-87
2023/01/23 08:56:47;;;;;;;10.07;8.20;;;;;;;;;;5092001;28;20201;-84
2023/01/23 08:59:16;;;;;;;4.93;4.50;;;;;;;;;;5093063;28;20212;-88
2023/01/23 09:01:46;;;;;;;5.87;3.57;;;;;;;;;;5092243;28;20201;-84
2023/01/23 09:04:16;;;;;;;5.53;4.23;;;;;;;;;;5092397;28;20197;-85
2023/01/23 09:06:48;;;;;;;2.27;2.17;;;;;;;;;;5063578;28;20213;-86
2023/01/23 09:09:17;;;;;;;2.00;1.90;;;;;;;;;;5063653;28;20292;-89
2023/01/23 09:11:47;;;;;;;4.60;4.30;;;;;;;;;;5067624;28;20197;-87
2023/01/23 09:14:21;;;;;;;4.60;4.13;;;;;;;;;;5062757;28;20216;-83
2023/01/23 09:16:50;;;;;;;9.63;4.63;;;;;;;;;;5063088;28;20221;-84
2023/01/23 09:19:18;;;;;;;3.57;2.77;;;;;;;;;;5069498;28;20255;-84
2023/01/23 09:21:47;;;;;;;8.30;5.80;;;;;;;;;;5069566;28;20214;-84
2023/01/23 09:24:15;;;;;;;1.40;1.37;;;;;;;;;;5080526;28;20193;-84
2023/01/23 09:26:43;;;;;;;2.40;2.30;;;;;;;;;;5067307;28;20213;-87
2023/01/23 09:29:16;;;;;;;4.03;3.63;;;;;;;;;;5069505;28;20197;-84
2023/01/23 09:31:45;;;;;;;7.23;5.70;;;;;;;;;;5069606;28;20197;-86
2023/01/23 09:34:13;;;;;;;10.87;6.20;;;;;;;;;;5084504;28;20212;-87
2023/01/23 09:36:46;;;;;;;8.10;7.20;;;;;;;;;;5091875;28;20235;-86
2023/01/23 09:39:15;;;;;;;11.50;5.13;;;;;;;;;;5076414;28;20202;-88
2023/01/23 09:41:45;;;;;;;7.93;5.77;;;;;;;;;;5067235;28;20186;-89
2023/01/23 09:44:19;;;;;;;4.83;2.93;;;;;;;;;;5070621;28;20204;-81
2023/01/23 09:46:48;;;;;;;3.60;3.37;;;;;;;;;;5067506;28;20262;-80
2023/01/23 09:49:20;;;;;;;9.00;6.30;;;;;;;;;;5087045;28;20201;-81
2023/01/23 09:51:53;;;;;;;5.97;5.37;;;;;;;;;;5069664;28;20296;-81
2023/01/23 09:54:29;;;;;;;1.23;1.23;;;;;;;;;;5085072;28;20212;-81
2023/01/23 09:56:59;;;;;;;6.30;4.00;;;;;;;;;;5065731;28;20208;-80
2023/01/23 09:59:32;;;;;;;5.23;4.73;;;;;;;;;;5070441;28;20198;-81
2023/01/23 10:02:01;;;;;;;2.20;2.10;;;;;;;;;;5086984;28;20205;-89
2023/01/23 10:04:30;;;;;;;9.53;4.47;;;;;;;;;;5082790;28;20308;-88
2023/01/23 10:07:16;;;;;;;7.10;5.00;;;;;;;;;;5067866;28;20221;-90
2023/01/23 10:09:52;;;;;;;4.70;4.30;;;;;;;;;;5067900;28;20208;-87
2023/01/23 10:12:28;;;;;;;12.10;7.47;;;;;;;;;;5067806;28;20200;-89
2023/01/23 10:15:05;;;;;;;5.63;3.97;;;;;;;;;;5078739;28;20205;-87
2023/01/23 10:17:38;;;;;;;4.70;4.30;;;;;;;;;;5065593;28;20213;-86
2023/01/23 10:20:29;;;;;;;4.90;4.37;;;;;;;;;;5063878;28;20240;-87
2023/01/23 10:23:05;;;;;;;8.33;4.03;;;;;;;;;;5063459;28;20226;-88
2023/01/23 10:25:37;;;;;;;4.83;4.43;;;;;;;;;;5064723;28;20197;-88
2023/01/23 10:28:15;;;;;;;8.73;5.70;;;;;;;;;;5071961;28;20206;-90
2023/01/23 10:30:47;;;;;;;2.10;1.53;;;;;;;;;;5074104;28;20197;-86
2023/01/23 10:33:17;;;;;;;4.53;4.00;;;;;;;;;;5072595;28;20212;-88
2023/01/23 10:35:49;;;;;;;2.73;2.63;;;;;;;;;;5074168;28;20190;-91
2023/01/23 10:38:26;;;;;;;7.87;5.10;;;;;;;;;;5060280;28;20201;-91
2023/01/23 10:43:40;;;;;;;10.17;7.47;;;;;;;;;;5068276;28;20190;-90
2023/01/23 10:46:12;;;;;;;15.87;11.47;;;;;;;;;;5067872;28;20278;-89
2023/01/23 10:48:46;;;;;;;2.60;2.40;;;;;;;;;;5064590;28;20206;-88
2023/01/23 10:51:28;;;;;;;5.27;4.73;;;;;;;;;;5064603;28;20210;-89
2023/01/23 10:54:03;;;;;;;8.83;6.47;;;;;;;;;;5067541;28;20222;-90
2023/01/23 10:56:34;;;;;;;8.47;6.10;;;;;;;;;;5068762;28;20202;-93
2023/01/23 10:59:04;;;;;;;10.30;6.77;;;;;;;;;;5065578;28;20194;-91
2023/01/23 11:01:34;;;;;;;14.07;10.50;;;;;;;;;;5070367;28;20206;-89
2023/01/23 11:04:18;;;;;;;4.30;3.90;;;;;;;;;;5068244;28;20235;-91
2023/01/23 11:07:00;;;;;;;14.97;11.60;;;;;;;;;;5071549;28;20225;-90
2023/01/23 11:09:29;;;;;;;12.97;8.17;;;;;;;;;;5075527;28;20205;-93
2023/01/23 11:12:05;;;;;;;6.07;3.97;;;;;;;;;;5077144;28;20285;-94
2023/01/23 11:14:37;;;;;;;5.53;4.70;;;;;;;;;;5065315;28;20260;-93
2023/01/23 11:17:19;;;;;;;12.77;4.33;;;;;;;;;;5062287;28;20251;-92
2023/01/23 11:19:49;;;;;;;6.57;4.70;;;;;;;;;;5065909;28;20233;-91
2023/01/23 11:22:38;;;;;;;7.07;4.87;;;;;;;;;;5066727;28;20209;-90
2023/01/23 11:25:27;;;;;;;3.33;3.13;;;;;;;;;;5073852;28;20260;-90
2023/01/23 11:27:59;;;;;;;5.17;3.80;;;;;;;;;;5062078;28;20206;-90
2023/01/23 11:30:34;;;;;;;11.23;6.03;;;;;;;;;;5059818;28;20199;-93
2023/01/23 11:33:11;;;;;;;7.87;5.67;;;;;;;;;;5065583;28;20342;-91
2023/01/23 11:35:53;;;;;;;5.53;4.73;;;;;;;;;;5065267;28;20201;-92
2023/01/23 11:38:25;;;;;;;6.03;5.07;;;;;;;;;;5064193;28;20205;-92
2023/01/23 11:40:58;;;;;;;16.30;10.80;;;;;;;;;;5065838;28;20197;-91
2023/01/23 11:43:26;;;;;;;13.17;4.77;;;;;;;;;;5071749;28;20204;-93
2023/01/23 11:46:06;;;;;;;16.13;10.60;;;;;;;;;;5070200;28;20204;-95
2023/01/23 11:48:44;;;;;;;9.03;6.47;;;;;;;;;;5063311;28;20226;-91
2023/01/23 11:51:16;;;;;;;4.40;4.00;;;;;;;;;;5063507;28;20214;-88
2023/01/23 11:53:49;;;;;;;11.60;8.37;;;;;;;;;;5079656;28;20232;-92
2023/01/23 11:56:23;;;;;;;10.07;7.03;;;;;;;;;;5063091;28;20208;-91
2023/01/23 11:58:57;;;;;;;8.23;6.37;;;;;;;;;;5066547;28;20519;-90
2023/01/23 12:01:40;;;;;;;13.77;7.03;;;;;;;;;;5062279;28;20201;-93
2023/01/23 12:04:49;;;;;;;7.93;6.50;;;;;;;;;;5064030;28;20205;-93
2023/01/23 12:07:21;;;;;;;5.67;4.77;;;;;;;;;;4986285;28;20269;-93
2023/01/23 12:09:57;;;;;;;4.63;4.23;;;;;;;;;;4981387;28;20291;-90
2023/01/23 12:12:32;;;;;;;9.10;6.77;;;;;;;;;;5021162;28;20201;-88
2023/01/23 12:15:03;;;;;;;4.77;4.23;;;;;;;;;;5071072;28;20285;-93
2023/01/23 12:17:39;;;;;;;6.87;5.20;;;;;;;;;;5065364;28;20297;-95
2023/01/23 12:20:21;;;;;;;4.73;4.13;;;;;;;;;;5070850;28;20233;-93
2023/01/23 12:22:57;;;;;;;14.87;5.70;;;;;;;;;;5061722;28;20301;-89
2023/01/23 12:25:34;;;;;;;8.23;4.23;;;;;;;;;;5067565;28;20204;-95
2023/01/23 12:28:09;;;;;;;2.70;2.43;;;;;;;;;;5061691;28;20225;-95
2023/01/23 12:30:57;;;;;;;7.07;5.03;;;;;;;;;;5069116;28;20209;-87
2023/01/23 12:33:35;;;;;;;8.03;6.37;;;;;;;;;;5062347;28;20197;-90
2023/01/23 12:36:14;;;;;;;5.20;3.83;;;;;;;;;;5057581;28;20210;-91
2023/01/23 12:38:48;;;;;;;3.87;3.30;;;;;;;;;;5065091;28;20238;-86
2023/01/23 12:41:22;;;;;;;6.77;4.17;;;;;;;;;;5067158;28;20232;-92
2023/01/23 12:43:54;;;;;;;3.60;2.80;;;;;;;;;;5066685;28;20202;-89
2023/01/23 12:46:26;;;;;;;4.57;2.53;;;;;;;;;;5062044;28;20205;-93
2023/01/23 12:49:02;;;;;;;2.53;2.37;;;;;;;;;;5068489;28;20202;-89
2023/01/23 12:51:34;;;;;;;4.57;3.03;;;;;;;;;;5075741;28;20247;-88
2023/01/23 12:54:11;;;;;;;4.00;3.07;;;;;;;;;;5091066;28;20202;-91
2023/01/23 12:56:40;;;;;;;3.83;3.23;;;;;;;;;;5074605;28;20225;-87
2023/01/23 12:59:14;;;;;;;7.00;4.77;;;;;;;;;;5076316;28;20193;-94
2023/01/23 13:01:50;;;;;;;2.57;1.50;;;;;;;;;;5075576;28;20201;-89
2023/01/23 13:04:24;;;;;;;1.10;1.10;;;;;;;;;;5075600;28;20204;-88
2023/01/23 13:07:01;;;;;;;1.30;1.30;;;;;;;;;;5076121;28;20252;-88
2023/01/23 13:09:36;;;;;;;1.43;1.40;;;;;;;;;;5076581;28;20227;-90
2023/01/23 13:12:17;;;;;;;1.83;1.70;;;;;;;;;;5071715;28;20284;-89
2023/01/23 13:14:50;;;;;;;3.40;2.17;;;;;;;;;;5071553;28;20220;-91
2023/01/23 13:17:39;;;;;;;2.70;2.40;;;;;;;;;;5067411;28;20209;-91
2023/01/23 13:23:21;;;;;;;2.50;2.27;;;;;;;;;;5076840;28;20216;-89
2023/01/23 13:25:51;;;;;;;4.23;3.60;;;;;;;;;;5086112;28;20201;-91
2023/01/23 13:28:27;;;;;;;6.13;4.23;;;;;;;;;;5070178;28;20243;-92
2023/01/23 13:31:24;;;;;;;1.80;1.70;;;;;;;;;;5091149;28;20220;-93
2023/01/23 13:33:53;;;;;;;2.60;2.40;;;;;;;;;;5077834;28;20208;-90
2023/01/23 13:36:35;;;;;;;3.47;2.70;;;;;;;;;;5073050;28;20220;-92
2023/01/23 13:39:21;;;;;;;1.90;1.80;;;;;;;;;;5075864;28;20221;-91
2023/01/23 13:41:52;;;;;;;3.20;2.70;;;;;;;;;;5074505;28;20197;-93
2023/01/23 13:44:25;;;;;;;2.03;1.93;;;;;;;;;;5078205;28;20204;-93
2023/01/23 13:50:20;;;;;;;2.20;2.00;;;;;;;;;;5029769;28;20318;-90
2023/01/23 13:59:24;;;;;;;2.37;2.17;;;;;;;;;;4776496;29;20249;-92
2023/01/23 14:05:21;;;;;;;2.80;2.57;;;;;;;;;;4634248;30;20273;-89
2023/01/23 14:08:05;;;;;;;6.03;5.43;;;;;;;;;;4594902;31;20586;-87
2023/01/23 14:13:49;;;;;;;5.30;3.37;;;;;;;;;;4604040;30;20216;-91
2023/01/23 14:16:32;;;;;;;3.13;2.40;;;;;;;;;;4587494;30;20243;-89
2023/01/23 14:19:22;;;;;;;11.57;2.80;;;;;;;;;;4605280;31;20306;-87
2023/01/23 14:22:06;;;;;;;3.97;3.00;;;;;;;;;;4658387;30;20235;-90
2023/01/23 14:24:42;;;;;;;2.80;2.50;;;;;;;;;;4703484;30;20310;-86
2023/01/23 14:27:19;;;;;;;3.00;2.67;;;;;;;;;;4760765;29;20391;-88
2023/01/23 14:29:56;;;;;;;2.47;2.13;;;;;;;;;;4829564;29;20250;-88
2023/01/23 14:32:28;;;;;;;3.60;2.50;;;;;;;;;;4879532;29;20206;-89
2023/01/23 14:34:57;;;;;;;2.30;2.13;;;;;;;;;;4911203;29;20294;-90
2023/01/23 14:37:26;;;;;;;1.10;1.10;;;;;;;;;;4918038;29;20227;-90
2023/01/23 14:39:56;;;;;;;2.00;1.90;;;;;;;;;;4906238;28;20211;-89
2023/01/23 14:42:29;;;;;;;3.40;3.10;;;;;;;;;;4977915;28;20211;-90
2023/01/23 14:44:59;;;;;;;2.13;1.93;;;;;;;;;;5084985;28;20247;-92
2023/01/23 14:47:32;;;;;;;1.93;1.83;;;;;;;;;;5091873;28;20231;-90
2023/01/23 14:50:03;;;;;;;2.63;2.43;;;;;;;;;;5078715;28;20268;-92
2023/01/23 14:52:32;;;;;;;1.20;1.20;;;;;;;;;;5063171;28;20208;-87
2023/01/23 14:55:01;;;;;;;1.77;1.67;;;;;;;;;;5070471;28;20204;-85
2023/01/23 14:57:36;;;;;;;3.17;2.33;;;;;;;;;;5068075;28;20236;-87
2023/01/23 15:00:07;;;;;;;1.90;1.20;;;;;;;;;;5072026;28;20232;-88
2023/01/23 15:02:37;;;;;;;3.43;2.70;;;;;;;;;;5071634;28;20213;-88
2023/01/23 15:05:18;;;;;;;1.53;1.43;;;;;;;;;;5090218;28;20224;-87
2023/01/23 15:07:48;;;;;;;1.87;1.77;;;;;;;;;;5074603;28;20193;-88
2023/01/23 15:10:17;;;;;;;2.50;2.30;;;;;;;;;;5073656;28;20220;-87
2023/01/23 15:12:50;;;;;;;1.93;1.80;;;;;;;;;;5090849;28;20197;-88
2023/01/23 15:15:20;;;;;;;1.83;1.73;;;;;;;;;;5088291;28;20219;-87
2023/01/23 15:17:52;;;;;;;3.27;2.97;;;;;;;;;;5091055;28;20197;-87
2023/01/23 15:20:28;;;;;;;2.43;1.93;;;;;;;;;;5065622;28;20265;-85
2023/01/23 15:22:56;;;;;;;2.47;2.27;;;;;;;;;;5067344;28;20205;-85
2023/01/23 15:25:29;;;;;;;2.77;2.27;;;;;;;;;;5065788;28;20206;-87
2023/01/23 15:27:57;;;;;;;1.40;1.30;;;;;;;;;;5062547;28;20210;-88
2023/01/23 15:30:38;;;;;;;3.37;2.77;;;;;;;;;;5062055;28;20210;-87
2023/01/23 15:33:23;;;;;;;3.00;2.70;;;;;;;;;;5067478;28;20201;-87
2023/01/23 15:35:51;;;;;;;3.57;3.03;;;;;;;;;;5065578;28;20241;-87